createdAt,value
2022-12-18T00:02:12.484Z,10.93
2022-12-18T00:04:39.206Z,11.10
2022-12-18T00:07:05.534Z,12.82
2022-12-18T00:09:39.487Z,11.15
2022-12-18T00:14:45.398Z,11.27
2022-12-18T00:17:12.004Z,10.63
2022-12-18T00:19:38.383Z,10.65
2022-12-18T00:22:04.829Z,11.48
2022-12-18T00:24:31.346Z,12.48
2022-12-18T00:26:57.651Z,11.93
2022-12-18T00:29:24.015Z,10.95
2022-12-18T00:31:50.458Z,11.70
2022-12-18T00:34:16.959Z,11.55
2022-12-18T00:36:43.391Z,11.85
2022-12-18T00:39:11.750Z,11.85
2022-12-18T00:41:57.199Z,12.32
2022-12-18T00:44:23.590Z,11.95
2022-12-18T00:46:50.065Z,11.45
2022-12-18T00:49:19.750Z,12.93
2022-12-18T00:51:46.562Z,13.43
2022-12-18T00:54:13.172Z,10.95
2022-12-18T00:56:48.177Z,11.07
2022-12-18T00:59:15.380Z,11.15
2022-12-18T01:01:42.002Z,11.82
2022-12-18T01:04:10.366Z,10.85
2022-12-18T01:06:55.317Z,10.98
2022-12-18T01:09:21.690Z,10.60
2022-12-18T01:11:48.092Z,10.52
2022-12-18T01:14:14.467Z,11.57
2022-12-18T01:16:40.925Z,12.60
2022-12-18T01:19:07.721Z,10.10
2022-12-18T01:21:34.034Z,12.90
2022-12-18T01:24:00.622Z,9.40
2022-12-18T01:26:30.367Z,9.82
2022-12-18T01:28:57.861Z,8.52
2022-12-18T01:31:29.858Z,11.30
2022-12-18T01:33:56.763Z,11.55
2022-12-18T01:36:36.000Z,10.43
2022-12-18T01:39:05.455Z,9.57
2022-12-18T01:41:52.131Z,10.02
2022-12-18T01:44:57.574Z,9.90
2022-12-18T01:47:32.660Z,10.45
2022-12-18T01:50:01.694Z,11.32
2022-12-18T01:52:32.865Z,8.75
2022-12-18T01:55:01.047Z,8.95
2022-12-18T01:57:29.027Z,10.95
2022-12-18T02:00:00.530Z,10.48
2022-12-18T02:02:28.641Z,12.30
2022-12-18T02:04:55.548Z,10.48
2022-12-18T02:08:20.747Z,11.73
2022-12-18T02:11:05.488Z,7.72
2022-12-18T02:14:01.150Z,11.20
2022-12-18T02:16:41.162Z,10.15
2022-12-18T02:19:20.912Z,10.05
2022-12-18T02:21:57.380Z,9.10
2022-12-18T02:24:43.452Z,9.73
2022-12-18T02:27:11.899Z,9.00
2022-12-18T02:29:58.650Z,8.80
2022-12-18T02:32:29.622Z,8.07
2022-12-18T02:34:58.128Z,10.50
2022-12-18T02:37:28.015Z,9.02
2022-12-18T02:39:57.253Z,8.93
2022-12-18T02:42:24.863Z,7.05
2022-12-18T02:44:55.786Z,7.82
2022-12-18T02:47:25.156Z,9.55
2022-12-18T02:50:16.463Z,8.93
2022-12-18T02:53:07.972Z,7.35
2022-12-18T02:55:58.888Z,8.50
2022-12-18T02:58:44.001Z,7.97
2022-12-18T03:01:25.865Z,9.88
2022-12-18T03:03:59.479Z,7.10
2022-12-18T03:06:42.419Z,7.57
2022-12-18T03:09:15.686Z,8.52
2022-12-18T03:12:05.057Z,8.30
2022-12-18T03:14:35.008Z,7.68
2022-12-18T03:17:04.963Z,8.00
2022-12-18T03:19:33.578Z,7.93
2022-12-18T03:22:03.091Z,9.40
2022-12-18T03:24:32.282Z,6.95
2022-12-18T03:27:03.359Z,9.18
2022-12-18T03:29:38.994Z,8.43
2022-12-18T03:32:18.299Z,8.48
2022-12-18T03:34:50.017Z,8.20
2022-12-18T03:37:16.578Z,8.60
2022-12-18T03:39:42.976Z,6.93
2022-12-18T03:42:31.192Z,8.50
2022-12-18T03:45:24.315Z,8.30
2022-12-18T03:48:01.446Z,6.45
2022-12-18T03:50:37.628Z,7.78
2022-12-18T03:53:23.991Z,7.53
2022-12-18T03:55:52.204Z,8.82
2022-12-18T03:58:23.857Z,8.15
2022-12-18T04:00:52.544Z,6.70
2022-12-18T04:03:25.435Z,9.02
2022-12-18T04:05:56.553Z,7.20
2022-12-18T04:08:24.086Z,9.85
2022-12-18T04:10:50.475Z,7.18
2022-12-18T04:13:30.056Z,8.52
2022-12-18T04:15:56.989Z,8.77
2022-12-18T04:18:23.410Z,7.57
2022-12-18T04:20:49.843Z,8.32
2022-12-18T04:23:16.258Z,9.73
2022-12-18T04:25:42.642Z,7.07
2022-12-18T04:28:09.149Z,7.93
2022-12-18T04:30:35.500Z,6.80
2022-12-18T04:33:01.909Z,8.85
2022-12-18T04:35:28.304Z,7.10
2022-12-18T04:37:54.614Z,7.45
2022-12-18T04:40:21.025Z,9.05
2022-12-18T04:42:47.383Z,9.18
2022-12-18T04:45:13.795Z,9.82
2022-12-18T04:47:40.184Z,9.45
2022-12-18T04:50:07.038Z,9.00
2022-12-18T04:52:33.440Z,8.98
2022-12-18T04:54:59.844Z,8.18
2022-12-18T04:57:27.054Z,9.32
2022-12-18T04:59:53.410Z,8.93
2022-12-18T05:02:19.818Z,8.40
2022-12-18T05:04:46.239Z,8.35
2022-12-18T05:07:12.603Z,8.73
2022-12-18T05:09:38.903Z,9.38
2022-12-18T05:12:05.407Z,8.13
2022-12-18T05:14:31.717Z,8.40
2022-12-18T05:17:00.844Z,10.10
2022-12-18T05:19:27.698Z,9.75
2022-12-18T05:21:54.122Z,8.43
2022-12-18T05:24:20.472Z,7.28
2022-12-18T05:26:46.776Z,10.95
2022-12-18T05:29:13.399Z,8.63
2022-12-18T05:31:40.517Z,8.32
2022-12-18T05:34:08.471Z,9.75
2022-12-18T05:36:34.965Z,7.35
2022-12-18T05:39:01.342Z,8.98
2022-12-18T05:41:28.031Z,8.73
2022-12-18T05:43:54.386Z,10.40
2022-12-18T05:46:21.010Z,9.23
2022-12-18T05:48:47.680Z,10.93
2022-12-18T05:51:16.866Z,10.70
2022-12-18T05:53:43.736Z,11.07
2022-12-18T05:56:14.516Z,9.85
2022-12-18T05:58:41.168Z,9.85
2022-12-18T06:01:12.045Z,8.57
2022-12-18T06:03:38.425Z,10.63
2022-12-18T06:06:05.330Z,9.82
2022-12-18T06:08:31.669Z,9.88
2022-12-18T06:10:58.298Z,10.93
2022-12-18T06:13:24.679Z,8.85
2022-12-18T06:15:51.025Z,9.98
2022-12-18T06:18:17.453Z,9.40
2022-12-18T06:20:43.809Z,10.13
2022-12-18T06:23:10.354Z,8.95
2022-12-18T06:25:40.463Z,9.60
2022-12-18T06:28:06.873Z,9.95
2022-12-18T06:30:33.241Z,7.63
2022-12-18T06:32:59.606Z,8.95
2022-12-18T06:35:25.904Z,9.52
2022-12-18T06:37:52.340Z,9.05
2022-12-18T06:40:18.901Z,8.63
2022-12-18T06:42:45.202Z,8.65
2022-12-18T06:45:12.315Z,10.25
2022-12-18T06:47:38.639Z,9.73
2022-12-18T06:50:05.362Z,9.75
2022-12-18T06:52:32.993Z,8.32
2022-12-18T06:54:59.353Z,8.82
2022-12-18T06:57:25.658Z,10.20
2022-12-18T06:59:51.943Z,10.15
2022-12-18T07:02:18.521Z,9.32
2022-12-18T07:04:44.966Z,8.95
2022-12-18T07:07:11.291Z,9.15
2022-12-18T07:09:37.617Z,10.40
2022-12-18T07:12:05.881Z,7.85
2022-12-18T07:14:32.278Z,9.00
2022-12-18T07:16:58.688Z,10.00
2022-12-18T07:19:25.468Z,9.48
2022-12-18T07:21:52.003Z,10.45
2022-12-18T07:24:18.517Z,10.65
2022-12-18T07:26:47.499Z,9.15
2022-12-18T07:29:14.059Z,11.55
2022-12-18T07:31:40.602Z,11.85
2022-12-18T07:34:11.704Z,11.43
2022-12-18T07:36:38.175Z,13.27
2022-12-18T07:39:04.613Z,11.82
2022-12-18T07:41:30.969Z,12.55
2022-12-18T07:43:57.301Z,9.90
2022-12-18T07:46:23.779Z,9.60
2022-12-18T07:48:50.546Z,10.60
2022-12-18T07:51:17.685Z,12.98
2022-12-18T07:53:45.208Z,10.77
2022-12-18T07:56:30.343Z,10.80
2022-12-18T08:01:24.328Z,7.47
2022-12-18T08:03:52.528Z,9.10
2022-12-18T08:06:21.789Z,8.23
2022-12-18T08:08:55.852Z,9.23
2022-12-18T08:11:23.938Z,10.15
2022-12-18T08:13:50.265Z,8.75
2022-12-18T08:16:17.790Z,11.93
2022-12-18T08:18:44.197Z,10.55
2022-12-18T08:21:16.555Z,9.88
2022-12-18T08:23:43.926Z,9.45
2022-12-18T08:26:12.093Z,11.45
2022-12-18T08:28:38.622Z,11.20
2022-12-18T08:31:05.249Z,11.30
2022-12-18T08:33:31.809Z,10.48
2022-12-18T08:35:59.663Z,10.25
2022-12-18T08:38:26.268Z,11.77
2022-12-18T08:41:07.929Z,12.93
2022-12-18T08:43:52.675Z,11.05
2022-12-18T08:46:20.765Z,11.27
2022-12-18T08:48:47.335Z,12.02
2022-12-18T08:51:14.155Z,9.55
2022-12-18T08:53:40.886Z,12.00
2022-12-18T08:56:08.327Z,12.07
2022-12-18T08:58:35.767Z,14.00
2022-12-18T09:01:07.784Z,9.85
2022-12-18T09:03:34.298Z,14.50
2022-12-18T09:06:00.717Z,13.90
2022-12-18T09:08:27.461Z,13.18
2022-12-18T09:10:54.324Z,15.10
2022-12-18T09:13:20.770Z,11.00
2022-12-18T09:15:52.634Z,12.55
2022-12-18T09:18:21.115Z,12.85
2022-12-18T09:20:47.945Z,12.18
2022-12-18T09:23:14.710Z,13.32
2022-12-18T09:25:41.618Z,12.00
2022-12-18T09:28:15.571Z,13.43
2022-12-18T09:30:45.205Z,12.63
2022-12-18T09:33:11.653Z,11.77
2022-12-18T09:35:39.783Z,12.73
2022-12-18T09:38:07.345Z,15.02
2022-12-18T09:40:48.255Z,12.48
2022-12-18T09:43:28.033Z,12.88
2022-12-18T09:46:02.815Z,11.57
2022-12-18T09:48:33.521Z,12.38
2022-12-18T09:51:07.020Z,13.70
2022-12-18T09:53:39.411Z,13.23
2022-12-18T09:56:06.215Z,13.85
2022-12-18T09:58:45.210Z,13.07
2022-12-18T10:01:19.662Z,14.38
2022-12-18T10:03:46.053Z,12.40
2022-12-18T10:06:21.995Z,16.25
2022-12-18T10:09:25.638Z,14.70
2022-12-18T10:12:09.535Z,15.80
2022-12-18T10:14:52.399Z,16.33
2022-12-18T10:17:42.862Z,14.93
2022-12-18T10:20:28.207Z,13.95
2022-12-18T10:22:58.771Z,14.55
2022-12-18T10:25:36.165Z,15.57
2022-12-18T10:28:13.107Z,15.18
2022-12-18T10:30:41.012Z,15.70
2022-12-18T10:33:12.917Z,15.80
2022-12-18T10:35:43.154Z,15.95
2022-12-18T10:38:18.310Z,15.70
2022-12-18T10:40:50.880Z,15.40
2022-12-18T10:43:22.566Z,15.60
2022-12-18T10:46:08.540Z,15.27
2022-12-18T10:51:12.790Z,12.70
2022-12-18T10:53:42.879Z,13.75
2022-12-18T10:56:09.584Z,14.25
2022-12-18T10:58:38.392Z,14.95
2022-12-18T11:01:17.728Z,18.13
2022-12-18T11:04:02.609Z,15.55
2022-12-18T11:06:30.129Z,15.40
2022-12-18T11:09:19.944Z,16.02
2022-12-18T11:11:55.314Z,16.33
2022-12-18T11:14:25.969Z,15.80
2022-12-18T11:19:42.170Z,15.77
2022-12-18T11:22:29.036Z,15.75
2022-12-18T11:25:30.767Z,16.48
2022-12-18T11:27:55.076Z,16.23
2022-12-18T11:30:28.352Z,18.38
2022-12-18T11:33:13.388Z,15.80
2022-12-18T11:35:59.663Z,18.80
2022-12-18T11:38:29.857Z,17.10
2022-12-18T11:42:12.246Z,16.55
2022-12-18T11:44:59.865Z,16.52
2022-12-18T11:47:30.627Z,16.33
2022-12-18T11:50:01.382Z,15.68
2022-12-18T11:52:38.614Z,17.35
2022-12-18T11:55:16.912Z,17.20
2022-12-18T11:58:01.063Z,15.82
2022-12-18T12:00:27.408Z,16.88
2022-12-18T12:03:08.884Z,18.17
2022-12-18T12:05:57.334Z,16.80
2022-12-18T12:08:41.459Z,17.25
2022-12-18T12:11:32.339Z,15.57
2022-12-18T12:14:17.361Z,15.43
2022-12-18T12:16:56.764Z,16.87
2022-12-18T12:19:55.399Z,15.68
2022-12-18T12:22:37.445Z,14.38
2022-12-18T12:25:19.790Z,15.07
2022-12-18T12:28:11.925Z,17.95
2022-12-18T12:31:08.749Z,17.08
2022-12-18T12:33:52.982Z,16.17
2022-12-18T12:36:30.244Z,13.98
2022-12-18T12:39:00.837Z,13.35
2022-12-18T12:41:51.433Z,16.60
2022-12-18T12:44:24.995Z,15.90
2022-12-18T12:46:56.100Z,16.52
2022-12-18T12:49:27.866Z,15.52
2022-12-18T12:52:04.191Z,15.75
2022-12-18T12:54:33.582Z,15.90
2022-12-18T12:57:14.632Z,14.73
2022-12-18T13:00:00.353Z,15.32
2022-12-18T13:02:36.752Z,14.38
2022-12-18T13:05:41.281Z,15.52
2022-12-18T13:08:22.415Z,14.43
2022-12-18T13:10:50.787Z,14.30
2022-12-18T13:13:21.148Z,16.23
2022-12-18T13:16:05.878Z,15.30
2022-12-18T13:18:33.390Z,16.00
2022-12-18T13:21:03.238Z,15.23
2022-12-18T13:23:35.752Z,16.52
2022-12-18T13:26:11.219Z,15.85
2022-12-18T13:28:47.023Z,15.52
2022-12-18T13:31:15.182Z,15.27
2022-12-18T13:34:16.637Z,14.82
2022-12-18T13:36:33.565Z,14.88
2022-12-18T13:39:18.461Z,15.15
2022-12-18T13:41:51.066Z,14.88
2022-12-18T13:44:40.606Z,14.10
2022-12-18T13:47:33.314Z,15.50
2022-12-18T13:50:01.370Z,15.82
2022-12-18T13:52:34.196Z,15.52
2022-12-18T13:55:03.134Z,14.00
2022-12-18T13:57:32.989Z,14.18
2022-12-18T14:00:33.585Z,14.65
2022-12-18T14:03:00.600Z,14.70
2022-12-18T14:05:30.841Z,12.10
2022-12-18T14:08:02.798Z,14.38
2022-12-18T14:10:49.464Z,14.23
2022-12-18T14:13:29.965Z,15.57
2022-12-18T14:15:57.494Z,13.95
2022-12-18T14:18:33.670Z,15.15
2022-12-18T14:21:02.869Z,13.88
2022-12-18T14:23:36.710Z,15.82
2022-12-18T14:26:21.925Z,15.85
2022-12-18T14:28:48.321Z,14.85
2022-12-18T14:31:26.760Z,16.08
2022-12-18T14:33:54.155Z,14.55
2022-12-18T14:36:25.728Z,15.80
2022-12-18T14:38:54.757Z,14.07
2022-12-18T14:41:22.149Z,14.23
2022-12-18T14:43:51.144Z,15.55
2022-12-18T14:46:37.631Z,17.15
2022-12-18T14:49:16.831Z,16.05
2022-12-18T14:51:52.074Z,15.63
2022-12-18T14:54:20.916Z,14.93
2022-12-18T14:56:50.949Z,15.98
2022-12-18T14:59:24.783Z,15.38
2022-12-18T15:02:22.262Z,15.38
2022-12-18T15:05:00.032Z,13.50
2022-12-18T15:07:26.396Z,20.85
2022-12-18T15:10:12.319Z,15.55
2022-12-18T15:15:45.640Z,16.15
2022-12-18T15:18:17.652Z,14.02
2022-12-18T15:21:18.419Z,15.98
2022-12-18T15:23:45.055Z,15.77
2022-12-18T15:26:15.403Z,14.70
2022-12-18T15:28:56.406Z,15.55
2022-12-18T15:31:25.521Z,14.25
2022-12-18T15:33:54.698Z,13.45
2022-12-18T15:36:26.298Z,14.88
2022-12-18T15:38:58.883Z,16.17
2022-12-18T15:41:36.881Z,17.70
2022-12-18T15:44:04.027Z,15.70
2022-12-18T15:46:31.694Z,15.55
2022-12-18T15:49:02.124Z,15.98
2022-12-18T15:51:37.907Z,14.60
2022-12-18T15:54:07.616Z,14.85
2022-12-18T15:56:52.996Z,14.55
2022-12-18T15:59:21.094Z,13.40
2022-12-18T16:01:49.575Z,13.68
2022-12-18T16:04:18.675Z,14.52
2022-12-18T16:07:13.317Z,13.00
2022-12-18T16:09:31.329Z,12.75
2022-12-18T16:12:00.314Z,12.95
2022-12-18T16:14:29.928Z,13.23
2022-12-18T16:17:03.103Z,14.02
2022-12-18T16:19:30.786Z,13.35
2022-12-18T16:21:59.147Z,15.15
2022-12-18T16:24:28.244Z,14.73
2022-12-18T16:26:55.385Z,13.40
2022-12-18T16:29:27.699Z,13.50
2022-12-18T16:31:59.275Z,12.57
2022-12-18T16:34:35.404Z,13.40
2022-12-18T16:37:08.438Z,12.15
2022-12-18T16:39:35.840Z,14.60
2022-12-18T16:42:10.640Z,15.70
2022-12-18T16:44:37.491Z,14.35
2022-12-18T16:47:04.251Z,15.90
2022-12-18T16:49:31.740Z,16.88
2022-12-18T16:51:58.301Z,14.60
2022-12-18T16:54:24.860Z,17.05
2022-12-18T16:56:52.001Z,14.65
2022-12-18T16:59:19.126Z,14.65
2022-12-18T17:01:46.627Z,14.48
2022-12-18T17:04:13.102Z,12.73
2022-12-18T17:06:42.678Z,12.98
2022-12-18T17:09:12.335Z,13.02
2022-12-18T17:11:38.798Z,11.57
2022-12-18T17:14:12.271Z,13.27
2022-12-18T17:16:38.792Z,13.68
2022-12-18T17:19:08.030Z,11.05
2022-12-18T17:21:37.218Z,13.93
2022-12-18T17:24:04.748Z,13.77
2022-12-18T17:26:31.069Z,12.75
2022-12-18T17:28:57.932Z,14.98
2022-12-18T17:31:26.316Z,16.20
2022-12-18T17:33:53.549Z,18.85
2022-12-18T17:36:21.224Z,25.00
2022-12-18T17:39:01.544Z,21.23
2022-12-18T17:41:29.109Z,21.15
2022-12-18T17:43:58.507Z,23.35
2022-12-18T17:46:25.899Z,24.40
2022-12-18T17:48:54.852Z,22.05
2022-12-18T17:51:21.378Z,17.70
2022-12-18T17:53:47.754Z,16.45
2022-12-18T17:56:16.472Z,19.60
2022-12-18T17:58:43.175Z,19.05
2022-12-18T18:01:13.584Z,17.75
2022-12-18T18:03:42.871Z,18.17
2022-12-18T18:06:09.747Z,17.40
2022-12-18T18:08:36.108Z,17.50
2022-12-18T18:11:26.106Z,16.60
2022-12-18T18:14:01.400Z,17.02
2022-12-18T18:16:40.571Z,16.85
2022-12-18T18:19:10.889Z,15.75
2022-12-18T18:21:42.794Z,16.98
2022-12-18T18:24:10.732Z,15.32
2022-12-18T18:26:37.700Z,13.48
2022-12-18T18:29:06.386Z,14.38
2022-12-18T18:31:35.658Z,11.75
2022-12-18T18:34:08.568Z,14.25
2022-12-18T18:36:34.909Z,12.63
2022-12-18T18:39:01.834Z,19.05
2022-12-18T18:41:29.870Z,15.57
2022-12-18T18:43:57.814Z,15.40
2022-12-18T18:46:24.952Z,14.20
2022-12-18T18:48:51.427Z,13.13
2022-12-18T18:51:21.527Z,14.38
2022-12-18T18:53:50.259Z,12.32
2022-12-18T18:59:05.295Z,12.75
2022-12-18T19:01:31.902Z,12.57
2022-12-18T19:03:58.366Z,12.65
2022-12-18T19:06:27.092Z,14.73
2022-12-18T19:08:56.407Z,15.32
2022-12-18T19:11:42.755Z,12.68
2022-12-18T19:14:11.368Z,13.27
2022-12-18T19:16:38.024Z,13.52
2022-12-18T19:19:05.254Z,14.18
2022-12-18T19:21:33.237Z,14.20
2022-12-18T19:24:02.414Z,13.27
2022-12-18T19:26:29.183Z,14.50
2022-12-18T19:29:01.682Z,14.10
2022-12-18T19:31:33.395Z,12.85
2022-12-18T19:34:01.814Z,14.38
2022-12-18T19:36:29.776Z,13.65
2022-12-18T19:38:58.718Z,14.77
2022-12-18T19:41:26.273Z,13.95
2022-12-18T19:43:55.630Z,15.15
2022-12-18T19:46:23.747Z,12.32
2022-12-18T19:48:51.660Z,16.40
2022-12-18T19:51:23.985Z,16.35
2022-12-18T19:53:56.384Z,13.20
2022-12-18T19:56:27.659Z,15.57
2022-12-18T19:58:54.878Z,13.25
2022-12-18T20:01:23.610Z,13.48
2022-12-18T20:03:52.591Z,13.23
2022-12-18T20:06:24.927Z,13.38
2022-12-18T20:08:51.707Z,13.20
2022-12-18T20:11:20.239Z,13.82
2022-12-18T20:13:46.546Z,12.55
2022-12-18T20:16:13.164Z,14.30
2022-12-18T20:18:39.685Z,14.27
2022-12-18T20:21:09.493Z,12.13
2022-12-18T20:23:40.233Z,11.85
2022-12-18T20:26:06.860Z,14.38
2022-12-18T20:28:35.001Z,15.40
2022-12-18T20:31:03.476Z,14.02
2022-12-18T20:33:30.547Z,14.70
2022-12-18T20:36:06.156Z,14.40
2022-12-18T20:38:33.989Z,15.05
2022-12-18T20:41:02.300Z,14.20
2022-12-18T20:43:29.732Z,13.40
2022-12-18T20:46:03.272Z,13.60
2022-12-18T20:48:30.087Z,12.40
2022-12-18T20:51:02.107Z,13.52
2022-12-18T20:53:30.568Z,10.95
2022-12-18T20:55:57.022Z,11.98
2022-12-18T20:58:23.939Z,14.32
2022-12-18T21:00:51.538Z,11.98
2022-12-18T21:03:18.751Z,11.48
2022-12-18T21:05:45.192Z,14.15
2022-12-18T21:08:11.804Z,12.07
2022-12-18T21:10:42.269Z,11.93
2022-12-18T21:13:09.530Z,14.07
2022-12-18T21:15:37.696Z,13.27
2022-12-18T21:18:04.300Z,12.05
2022-12-18T21:20:30.672Z,16.30
2022-12-18T21:23:02.291Z,13.30
2022-12-18T21:25:36.034Z,14.05
2022-12-18T21:28:02.368Z,12.65
2022-12-18T21:30:28.699Z,13.95
2022-12-18T21:32:55.097Z,12.90
2022-12-18T21:35:21.469Z,11.80
2022-12-18T21:37:49.659Z,15.27
2022-12-18T21:40:16.041Z,14.55
2022-12-18T21:43:01.403Z,15.40
2022-12-18T21:45:27.699Z,16.10
2022-12-18T21:47:54.089Z,15.43
2022-12-18T21:50:20.480Z,16.50
2022-12-18T21:52:46.854Z,15.02
2022-12-18T21:55:13.266Z,18.77
2022-12-18T21:57:39.732Z,14.73
2022-12-18T22:00:10.232Z,15.23
2022-12-18T22:02:38.036Z,14.43
2022-12-18T22:05:04.885Z,15.38
2022-12-18T22:07:31.485Z,16.20
2022-12-18T22:09:58.035Z,14.88
2022-12-18T22:12:46.057Z,13.45
2022-12-18T22:15:20.005Z,12.35
2022-12-18T22:17:48.251Z,13.00
2022-12-18T22:20:15.959Z,12.95
2022-12-18T22:22:42.323Z,15.63
2022-12-18T22:25:10.560Z,15.18
2022-12-18T22:27:37.571Z,14.18
2022-12-18T22:30:06.201Z,13.57
2022-12-18T22:32:33.995Z,12.48
2022-12-18T22:35:06.804Z,12.45
2022-12-18T22:37:34.550Z,15.07
2022-12-18T22:40:03.179Z,14.55
2022-12-18T22:42:31.166Z,14.18
2022-12-18T22:44:57.529Z,14.75
2022-12-18T22:47:29.251Z,14.85
2022-12-18T22:49:56.326Z,15.43
2022-12-18T22:52:23.431Z,15.05
2022-12-18T22:54:51.342Z,13.80
2022-12-18T22:57:20.133Z,14.77
2022-12-18T22:59:46.442Z,14.65
2022-12-18T23:02:12.857Z,15.57
2022-12-18T23:04:39.704Z,15.50
2022-12-18T23:07:06.424Z,15.02
2022-12-18T23:09:33.130Z,15.18
2022-12-18T23:11:59.861Z,15.90
2022-12-18T23:14:26.394Z,16.15
2022-12-18T23:16:53.032Z,12.15
2022-12-18T23:19:20.016Z,16.02
2022-12-18T23:21:46.894Z,13.60
2022-12-18T23:24:13.404Z,14.90
2022-12-18T23:26:39.990Z,16.25
2022-12-18T23:29:06.634Z,14.95
2022-12-18T23:31:35.928Z,14.38
2022-12-18T23:34:03.950Z,12.90
2022-12-18T23:36:30.663Z,12.73
2022-12-18T23:39:00.996Z,12.60
2022-12-18T23:41:30.189Z,14.98
2022-12-18T23:43:57.562Z,14.90
2022-12-18T23:46:29.917Z,15.95
2022-12-18T23:49:01.722Z,15.48
2022-12-18T23:51:29.985Z,13.73
2022-12-18T23:53:58.874Z,14.40
2022-12-18T23:56:27.674Z,14.98
2022-12-18T23:58:54.332Z,13.25
